Time;durP1;ratioP1;P1;durP2;ratioP2;P2;SDS_P1;SDS_P2;PMS_P1;PMS_P2;Temp;Humidity;BMP_temperature;BMP_pressure;BME280_temperature;BME280_humidity;BME280_pressure;Samples;Min_cycle;Max_cycle;Signal;HPM_P1;HPM_P2
2023/01/08 00:01:29;;;;;;;36.70;20.37;;;3.30;99.90;;;;;;4228990;28;20280;-64
2023/01/08 00:03:30;;;;;;;38.47;21.57;;;3.30;99.90;;;;;;4228254;28;20685;-64
2023/01/08 00:05:31;;;;;;;30.83;17.60;;;3.30;99.90;;;;;;4229376;28;20275;-64
2023/01/08 00:07:32;;;;;;;39.93;21.93;;;3.30;99.90;;;;;;4228258;28;20264;-63
2023/01/08 00:09:33;;;;;;;47.20;25.07;;;3.20;99.90;;;;;;4229338;28;20739;-64
2023/01/08 00:11:34;;;;;;;47.30;22.63;;;3.20;99.90;;;;;;4227854;28;20362;-63
2023/01/08 00:13:35;;;;;;;36.57;18.77;;;3.10;99.90;;;;;;4228816;28;20321;-63
2023/01/08 00:15:36;;;;;;;37.03;20.10;;;3.10;99.90;;;;;;4228526;28;20388;-64
2023/01/08 00:17:37;;;;;;;32.03;17.77;;;3.10;99.90;;;;;;4228929;28;20264;-63
2023/01/08 00:19:40;;;;;;;28.47;16.60;;;3.00;99.90;;;;;;4229821;28;20321;-63
2023/01/08 00:21:41;;;;;;;30.97;17.37;;;3.00;99.90;;;;;;4228058;28;20346;-63
2023/01/08 00:23:43;;;;;;;31.80;17.27;;;2.90;99.90;;;;;;4229265;28;20775;-63
2023/01/08 00:25:45;;;;;;;36.03;18.40;;;2.90;99.90;;;;;;4225816;28;20326;-63
2023/01/08 00:27:46;;;;;;;30.90;17.57;;;2.90;99.90;;;;;;4229704;28;20657;-62
2023/01/08 00:29:47;;;;;;;36.00;20.13;;;2.90;99.90;;;;;;4228361;28;20272;-63
2023/01/08 00:31:48;;;;;;;33.97;18.57;;;2.90;99.90;;;;;;4229057;28;20325;-63
2023/01/08 00:33:49;;;;;;;38.53;17.93;;;2.90;99.90;;;;;;4227829;28;20321;-63
2023/01/08 00:35:50;;;;;;;36.43;19.10;;;2.80;99.90;;;;;;4228893;28;20287;-64
2023/01/08 00:37:51;;;;;;;55.67;20.83;;;2.80;99.90;;;;;;4227534;28;20280;-61
2023/01/08 00:39:53;;;;;;;37.10;20.03;;;2.70;99.90;;;;;;4229021;28;20301;-62
2023/01/08 00:41:54;;;;;;;43.07;20.00;;;2.70;99.90;;;;;;4228082;28;20248;-62
2023/01/08 00:43:55;;;;;;;63.13;21.93;;;2.70;99.90;;;;;;4228472;28;20341;-62
2023/01/08 00:45:56;;;;;;;42.23;20.10;;;2.70;99.90;;;;;;4228091;28;20669;-63
2023/01/08 00:47:57;;;;;;;41.07;19.77;;;2.70;99.90;;;;;;4228363;28;20261;-63
2023/01/08 00:49:59;;;;;;;43.67;21.73;;;2.70;99.90;;;;;;4229183;28;20279;-62
2023/01/08 00:52:00;;;;;;;40.77;22.07;;;2.60;99.90;;;;;;4227510;28;20275;-63
2023/01/08 00:54:01;;;;;;;44.27;23.37;;;2.60;99.90;;;;;;4228787;28;20260;-63
2023/01/08 00:56:05;;;;;;;64.47;24.63;;;2.70;99.90;;;;;;4227389;28;20272;-62
2023/01/08 00:58:06;;;;;;;62.17;22.83;;;2.70;99.90;;;;;;4227789;28;20316;-63
2023/01/08 01:00:11;;;;;;;61.23;22.40;;;2.70;99.90;;;;;;4227554;28;21092;-64
2023/01/08 01:02:12;;;;;;;79.57;22.23;;;2.70;99.90;;;;;;4224997;28;20283;-63
2023/01/08 01:04:15;;;;;;;50.83;20.83;;;2.70;99.90;;;;;;4225103;28;20356;-63
2023/01/08 01:06:16;;;;;;;119.37;23.67;;;2.70;99.90;;;;;;4228606;28;20325;-64
2023/01/08 01:08:17;;;;;;;62.60;20.53;;;2.70;99.90;;;;;;4226901;28;20681;-63
2023/01/08 01:10:18;;;;;;;144.90;22.33;;;2.70;99.90;;;;;;4228289;28;20321;-63
2023/01/08 01:12:20;;;;;;;284.63;33.83;;;2.70;99.90;;;;;;4227147;28;20333;-62
2023/01/08 01:14:21;;;;;;;167.30;23.23;;;2.60;99.90;;;;;;4227414;28;21112;-63
2023/01/08 01:16:23;;;;;;;106.90;20.90;;;2.60;99.90;;;;;;4227604;28;20272;-63
2023/01/08 01:18:25;;;;;;;120.00;24.07;;;2.50;99.90;;;;;;4227510;28;20276;-62
2023/01/08 01:20:26;;;;;;;80.03;20.57;;;2.50;99.90;;;;;;4228845;28;20282;-64
2023/01/08 01:22:27;;;;;;;85.20;21.37;;;2.50;99.90;;;;;;4227856;28;20892;-64
2023/01/08 01:24:28;;;;;;;91.73;21.73;;;2.60;99.90;;;;;;4227963;28;20303;-63
2023/01/08 01:26:30;;;;;;;99.10;23.67;;;2.50;99.90;;;;;;4227223;28;20272;-63
2023/01/08 01:28:31;;;;;;;72.37;21.23;;;2.50;99.90;;;;;;4227367;28;20321;-63
2023/01/08 01:30:32;;;;;;;101.17;26.13;;;2.50;99.90;;;;;;4226496;28;20276;-62
2023/01/08 01:32:34;;;;;;;117.77;28.03;;;2.60;99.90;;;;;;4228465;28;20276;-63
2023/01/08 01:34:35;;;;;;;89.87;22.57;;;2.60;99.90;;;;;;4227231;28;20690;-62
2023/01/08 01:36:36;;;;;;;92.57;21.23;;;2.50;99.90;;;;;;4228249;28;20276;-62
2023/01/08 01:38:41;;;;;;;64.90;22.43;;;2.50;99.90;;;;;;4227215;28;20336;-63
2023/01/08 01:40:42;;;;;;;203.57;24.47;;;2.50;99.90;;;;;;4228496;28;20288;-62
2023/01/08 01:42:44;;;;;;;111.93;21.77;;;2.50;99.90;;;;;;4226368;28;20268;-63
2023/01/08 01:44:45;;;;;;;121.10;22.27;;;2.50;99.90;;;;;;4227889;28;20288;-63
2023/01/08 01:46:47;;;;;;;109.30;21.87;;;2.40;99.90;;;;;;4227197;28;20297;-62
2023/01/08 01:48:52;;;;;;;96.30;21.67;;;2.40;99.90;;;;;;4226661;28;20313;-63
2023/01/08 01:50:53;;;;;;;120.37;21.63;;;2.40;99.90;;;;;;4228276;28;20328;-64
2023/01/08 01:53:18;;;;;;;101.90;21.27;;;2.40;99.90;;;;;;4227330;28;20279;-63
2023/01/08 01:55:19;;;;;;;111.37;20.73;;;2.40;99.90;;;;;;4210931;28;20272;-64
2023/01/08 01:57:21;;;;;;;49.93;19.73;;;2.40;99.90;;;;;;4226763;28;20597;-62
2023/01/08 01:59:22;;;;;;;61.97;20.47;;;2.40;99.90;;;;;;4225835;28;20380;-63
2023/01/08 02:01:24;;;;;;;78.43;19.47;;;2.50;99.90;;;;;;4227015;28;20324;-62
2023/01/08 02:03:30;;;;;;;69.30;21.53;;;2.40;99.90;;;;;;4227360;28;20304;-62
2023/01/08 02:05:51;;;;;;;56.00;21.00;;;2.50;99.90;;;;;;4227137;28;20264;-63
2023/01/08 02:08:05;;;;;;;74.63;19.17;;;2.50;99.90;;;;;;4227650;28;20321;-64
2023/01/08 02:10:16;;;;;;;115.90;19.23;;;2.50;99.90;;;;;;4226797;28;20412;-63
2023/01/08 02:12:19;;;;;;;;;;;2.40;99.90;;;;;;4228306;28;20272;-63
2023/01/08 02:14:36;;;;;;;110.83;19.53;;;2.40;99.90;;;;;;4225593;28;19920;-63
2023/01/08 02:16:49;;;;;;;41.30;17.33;;;2.40;99.90;;;;;;4227492;28;20280;-62
2023/01/08 02:18:59;;;;;;;54.07;17.37;;;2.40;99.90;;;;;;4225226;28;20272;-63
2023/01/08 02:21:10;;;;;;;55.97;17.48;;;2.30;99.90;;;;;;4227750;28;20654;-63
2023/01/08 02:23:24;;;;;;;;;;;2.40;99.90;;;;;;4227021;28;20040;-64
2023/01/08 02:26:09;;;;;;;116.30;19.83;;;2.40;99.90;;;;;;4227261;28;19915;-63
2023/01/08 02:28:13;;;;;;;64.23;17.87;;;2.40;99.90;;;;;;4207918;28;20702;-61
2023/01/08 02:30:14;;;;;;;61.67;18.33;;;2.40;99.90;;;;;;4226388;28;20272;-63
2023/01/08 02:32:16;;;;;;;40.80;17.83;;;2.30;99.90;;;;;;4227879;28;20321;-64
2023/01/08 02:34:17;;;;;;;43.50;17.80;;;2.30;99.90;;;;;;4226811;28;20280;-62
2023/01/08 02:36:35;;;;;;;63.03;18.20;;;2.30;99.90;;;;;;4227428;28;20341;-61
2023/01/08 02:38:48;;;;;;;85.47;19.57;;;2.30;99.90;;;;;;4227005;28;20268;-64
2023/01/08 02:41:06;;;;;;;90.70;19.57;;;2.30;99.90;;;;;;4227547;28;20747;-64
2023/01/08 02:43:23;;;;;;;59.97;18.37;;;2.30;99.90;;;;;;4226980;28;20317;-62
2023/01/08 02:45:36;;;;;;;122.50;21.30;;;2.20;99.90;;;;;;4227771;28;20284;-63
2023/01/08 02:48:01;;;;;;;94.17;18.77;;;2.20;99.90;;;;;;4210146;28;20272;-62
2023/01/08 02:50:10;;;;;;;73.73;19.77;;;2.10;99.90;;;;;;4227954;28;20317;-63
2023/01/08 02:52:15;;;;;;;61.77;19.13;;;2.20;99.90;;;;;;4227086;28;20305;-64
2023/01/08 02:54:24;;;;;;;93.33;20.50;;;2.10;99.90;;;;;;4227799;28;20272;-63
2023/01/08 02:56:35;;;;;;;58.30;19.27;;;2.10;99.90;;;;;;4226418;28;20272;-64
2023/01/08 02:58:37;;;;;;;71.23;21.37;;;2.10;99.90;;;;;;4227645;28;20325;-63
2023/01/08 03:00:41;;;;;;;92.83;20.17;;;2.20;99.90;;;;;;4224813;28;20309;-62
2023/01/08 03:02:43;;;;;;;195.97;27.27;;;2.10;99.90;;;;;;4227710;28;20333;-63
2023/01/08 03:04:51;;;;;;;89.30;20.20;;;2.10;99.90;;;;;;4226215;28;20296;-63
2023/01/08 03:06:52;;;;;;;130.43;25.10;;;2.10;99.90;;;;;;4227300;28;20695;-62
2023/01/08 03:08:54;;;;;;;54.20;21.13;;;2.10;99.90;;;;;;4226923;28;20785;-63
2023/01/08 03:11:02;;;;;;;49.90;19.93;;;2.10;99.90;;;;;;4225648;28;20367;-63
2023/01/08 03:13:15;;;;;;;55.77;22.60;;;2.20;99.90;;;;;;4210913;28;20266;-62
2023/01/08 03:15:23;;;;;;;106.90;22.50;;;2.30;99.90;;;;;;4212570;28;20310;-64
2023/01/08 03:17:33;;;;;;;50.80;19.33;;;2.20;99.90;;;;;;4227120;28;20260;-63
2023/01/08 03:19:42;;;;;;;38.78;18.65;;;2.30;99.90;;;;;;4227012;28;20284;-63
2023/01/08 03:21:45;;;;;;;88.47;20.17;;;2.30;99.90;;;;;;4225768;28;20016;-62
2023/01/08 03:23:47;;;;;;;223.00;27.10;;;2.30;99.90;;;;;;4229255;28;20621;-62
2023/01/08 03:25:48;;;;;;;103.37;19.53;;;2.30;99.90;;;;;;4230492;28;20279;-63
2023/01/08 03:27:56;;;;;;;74.17;18.87;;;2.20;99.90;;;;;;4229273;28;20336;-64
2023/01/08 03:29:59;;;;;;;65.57;19.70;;;2.20;99.90;;;;;;4229834;28;20280;-63
2023/01/08 03:32:04;;;;;;;53.90;19.47;;;2.10;99.90;;;;;;4228081;28;20287;-63
2023/01/08 03:34:06;;;;;;;64.40;21.50;;;2.20;99.90;;;;;;4230893;28;20297;-62
2023/01/08 03:36:12;;;;;;;70.63;21.73;;;2.20;99.90;;;;;;4229366;28;20317;-63
2023/01/08 03:38:27;;;;;;;64.63;21.87;;;2.30;99.90;;;;;;4228867;28;20760;-62
2023/01/08 03:40:34;;;;;;;42.23;17.13;;;2.30;99.90;;;;;;4227811;28;20284;-62
2023/01/08 03:42:35;;;;;;;37.57;17.57;;;2.30;99.90;;;;;;4229988;28;20284;-63
2023/01/08 03:44:36;;;;;;;84.07;19.33;;;2.30;99.90;;;;;;4228650;28;21089;-62
2023/01/08 03:46:43;;;;;;;84.83;19.60;;;2.30;99.90;;;;;;4230200;28;20284;-62
2023/01/08 03:48:45;;;;;;;73.23;18.37;;;2.30;99.90;;;;;;4229035;28;20344;-63
2023/01/08 03:50:47;;;;;;;57.27;20.03;;;2.30;99.90;;;;;;4230339;28;20305;-63
2023/01/08 03:52:49;;;;;;;72.63;22.57;;;2.30;99.90;;;;;;4229017;28;20325;-62
2023/01/08 03:54:50;;;;;;;53.87;19.10;;;2.30;99.90;;;;;;4238160;27;20283;-63
2023/01/08 03:56:51;;;;;;;130.67;20.50;;;2.30;99.90;;;;;;4235494;27;20283;-63
2023/01/08 03:58:53;;;;;;;57.30;17.83;;;2.40;99.90;;;;;;4229696;28;20279;-62
2023/01/08 04:00:54;;;;;;;372.07;27.97;;;2.40;99.90;;;;;;4227965;28;20336;-62
2023/01/08 04:02:55;;;;;;;114.47;18.77;;;2.30;99.90;;;;;;4228741;28;20306;-62
2023/01/08 04:04:56;;;;;;;170.00;23.73;;;2.30;99.90;;;;;;4229015;28;20349;-65
2023/01/08 04:06:57;;;;;;;390.37;30.17;;;2.20;99.90;;;;;;4228345;28;20853;-63
2023/01/08 04:08:58;;;;;;;257.53;24.50;;;2.20;99.90;;;;;;4229670;28;20332;-65
2023/01/08 04:10:59;;;;;;;277.97;22.77;;;2.10;99.90;;;;;;4228595;28;20313;-62
2023/01/08 04:13:01;;;;;;;279.70;27.13;;;2.10;99.90;;;;;;4229272;28;20313;-63
2023/01/08 04:15:02;;;;;;;273.67;24.00;;;2.10;99.90;;;;;;4228123;28;20356;-63
2023/01/08 04:17:03;;;;;;;198.70;21.53;;;2.10;99.90;;;;;;4229408;28;20601;-63
2023/01/08 04:19:04;;;;;;;235.57;28.00;;;2.10;99.90;;;;;;4228692;28;20271;-63
2023/01/08 04:21:06;;;;;;;220.33;23.27;;;2.20;99.90;;;;;;4230076;28;20341;-62
2023/01/08 04:23:07;;;;;;;202.03;21.63;;;2.10;99.90;;;;;;4228258;28;20755;-63
2023/01/08 04:25:08;;;;;;;76.77;19.57;;;2.10;99.90;;;;;;4229742;28;20349;-63
2023/01/08 04:27:09;;;;;;;46.80;18.43;;;2.10;99.90;;;;;;4228242;28;20272;-63
2023/01/08 04:29:12;;;;;;;89.13;18.93;;;2.10;99.90;;;;;;4229312;28;20763;-63
2023/01/08 04:31:13;;;;;;;46.63;17.20;;;2.20;99.90;;;;;;4228064;28;20329;-64
2023/01/08 04:33:14;;;;;;;50.43;18.50;;;2.20;99.90;;;;;;4229061;28;20260;-63
2023/01/08 04:35:15;;;;;;;340.07;27.47;;;2.30;99.90;;;;;;4228723;28;20317;-64
2023/01/08 04:37:16;;;;;;;400.80;31.03;;;2.30;99.90;;;;;;4228498;28;20284;-64
2023/01/08 04:39:17;;;;;;;287.73;24.47;;;2.20;99.90;;;;;;4229058;28;21176;-64
2023/01/08 04:41:19;;;;;;;232.73;23.90;;;2.10;99.90;;;;;;4228158;28;20272;-63
2023/01/08 04:43:20;;;;;;;135.80;19.87;;;2.10;99.90;;;;;;4229391;28;20588;-63
2023/01/08 04:45:21;;;;;;;341.43;25.77;;;2.10;99.90;;;;;;4228183;28;20317;-63
2023/01/08 04:47:22;;;;;;;171.97;21.10;;;2.10;99.90;;;;;;4227898;28;20275;-64
2023/01/08 04:49:23;;;;;;;305.23;26.53;;;2.00;99.90;;;;;;4227453;28;20379;-63
2023/01/08 04:51:25;;;;;;;131.20;19.77;;;1.90;99.90;;;;;;4229483;28;20264;-63
2023/01/08 04:53:27;;;;;;;265.83;27.67;;;2.00;99.90;;;;;;4227906;28;20834;-64
2023/01/08 04:55:28;;;;;;;381.40;27.07;;;2.00;99.90;;;;;;4212520;28;20674;-63
2023/01/08 04:57:30;;;;;;;138.37;20.30;;;2.00;99.90;;;;;;4227898;28;20280;-63
2023/01/08 04:59:32;;;;;;;423.43;35.93;;;1.90;99.90;;;;;;4228707;28;20796;-63
2023/01/08 05:01:33;;;;;;;167.20;20.97;;;2.00;99.90;;;;;;4226769;28;20272;-63
2023/01/08 05:03:34;;;;;;;92.97;19.33;;;2.00;99.90;;;;;;4228404;28;20321;-63
2023/01/08 05:05:36;;;;;;;182.50;21.43;;;2.00;99.90;;;;;;4228231;28;20276;-63
2023/01/08 05:07:37;;;;;;;153.23;23.03;;;2.00;99.90;;;;;;4228085;28;20280;-63
2023/01/08 05:09:38;;;;;;;96.53;19.97;;;2.00;99.90;;;;;;4228336;28;20325;-64
2023/01/08 05:11:39;;;;;;;206.50;23.20;;;2.00;99.90;;;;;;4227218;28;20279;-64
2023/01/08 05:13:41;;;;;;;168.87;22.97;;;2.00;99.90;;;;;;4228719;28;20276;-63
2023/01/08 05:15:42;;;;;;;294.77;31.03;;;1.90;99.90;;;;;;4227103;28;20267;-64
2023/01/08 05:17:43;;;;;;;325.50;31.13;;;1.90;99.90;;;;;;4228715;28;20268;-63
2023/01/08 05:19:44;;;;;;;193.30;23.53;;;1.90;99.90;;;;;;4227868;28;20276;-63
2023/01/08 05:21:45;;;;;;;249.47;25.47;;;1.90;99.90;;;;;;4229109;28;20727;-63
2023/01/08 05:23:47;;;;;;;351.20;31.77;;;1.90;99.90;;;;;;4223746;28;20306;-63
2023/01/08 05:25:48;;;;;;;88.70;19.90;;;1.80;99.90;;;;;;4228549;28;20284;-64
2023/01/08 05:27:49;;;;;;;252.43;25.63;;;1.80;99.90;;;;;;4227499;28;20272;-63
2023/01/08 05:29:50;;;;;;;135.73;21.33;;;1.90;99.90;;;;;;4228450;28;20256;-62
2023/01/08 05:31:51;;;;;;;360.33;32.70;;;1.90;99.90;;;;;;4227172;28;20329;-63
2023/01/08 05:33:52;;;;;;;374.47;34.20;;;1.90;99.90;;;;;;4227622;28;20772;-64
2023/01/08 05:35:54;;;;;;;306.23;26.70;;;1.90;99.90;;;;;;4226248;28;20284;-63
2023/01/08 05:37:55;;;;;;;264.13;26.40;;;1.90;99.90;;;;;;4228279;28;20268;-65
2023/01/08 05:39:56;;;;;;;265.67;29.60;;;1.90;99.90;;;;;;4228115;28;20301;-63
2023/01/08 05:41:57;;;;;;;460.77;41.00;;;1.80;99.90;;;;;;4227226;28;20337;-63
2023/01/08 05:43:59;;;;;;;300.27;24.03;;;1.80;99.90;;;;;;4228001;28;20806;-64
2023/01/08 05:46:01;;;;;;;320.73;24.87;;;1.80;99.90;;;;;;4226184;28;20256;-65
2023/01/08 05:48:06;;;;;;;287.07;25.60;;;1.80;99.90;;;;;;4227754;28;20353;-63
2023/01/08 05:50:08;;;;;;;329.90;30.47;;;1.80;99.90;;;;;;4227385;28;20732;-63
2023/01/08 05:52:09;;;;;;;301.97;25.30;;;1.80;99.90;;;;;;4228246;28;20268;-63
2023/01/08 05:54:10;;;;;;;384.03;32.67;;;1.80;99.90;;;;;;4226697;28;20324;-63
2023/01/08 05:56:11;;;;;;;256.27;24.67;;;1.80;99.90;;;;;;4227883;28;20604;-62
2023/01/08 05:58:13;;;;;;;309.33;30.43;;;1.80;99.90;;;;;;4227000;28;20735;-63
2023/01/08 06:00:14;;;;;;;470.60;39.20;;;1.80;99.90;;;;;;4227955;28;20736;-64
2023/01/08 06:02:16;;;;;;;326.33;30.40;;;1.80;99.90;;;;;;4225076;28;20305;-64
2023/01/08 06:04:18;;;;;;;225.77;27.07;;;1.80;99.90;;;;;;4228192;28;20272;-64
2023/01/08 06:06:20;;;;;;;251.60;25.27;;;1.80;99.90;;;;;;4226879;28;20283;-64
2023/01/08 06:08:21;;;;;;;231.87;24.70;;;1.80;99.90;;;;;;4227655;28;20280;-64
2023/01/08 06:10:22;;;;;;;457.27;34.57;;;1.80;99.90;;;;;;4227263;28;20755;-63
2023/01/08 06:12:23;;;;;;;276.77;28.20;;;1.90;99.90;;;;;;4225625;28;20326;-64
2023/01/08 06:14:24;;;;;;;407.07;36.07;;;1.90;99.90;;;;;;4227622;28;20276;-64
2023/01/08 06:16:25;;;;;;;293.03;28.10;;;1.80;99.90;;;;;;4210383;28;20602;-63
2023/01/08 06:18:27;;;;;;;176.20;22.57;;;1.80;99.90;;;;;;4227822;28;20714;-63
2023/01/08 06:20:29;;;;;;;191.27;24.70;;;1.90;99.90;;;;;;4227237;28;20325;-64
2023/01/08 06:22:30;;;;;;;210.07;25.30;;;1.90;99.90;;;;;;4228535;28;20329;-63
2023/01/08 06:24:31;;;;;;;239.23;26.83;;;1.90;99.90;;;;;;4226044;28;20288;-66
2023/01/08 06:26:32;;;;;;;161.87;22.90;;;1.90;99.90;;;;;;4227893;28;20735;-64
2023/01/08 06:28:34;;;;;;;150.20;22.17;;;1.90;99.90;;;;;;4226382;28;20288;-62
2023/01/08 06:30:35;;;;;;;260.83;28.83;;;1.90;99.90;;;;;;4227448;28;20283;-64
2023/01/08 06:32:36;;;;;;;231.90;25.97;;;1.90;99.90;;;;;;4226659;28;20669;-64
2023/01/08 06:34:37;;;;;;;166.63;20.87;;;1.90;99.90;;;;;;4227982;28;20264;-65
2023/01/08 06:36:38;;;;;;;138.80;21.83;;;1.80;99.90;;;;;;4227087;28;20264;-62
2023/01/08 06:38:39;;;;;;;95.37;20.47;;;1.80;99.90;;;;;;4227720;28;20708;-63
2023/01/08 06:40:41;;;;;;;154.10;19.90;;;1.90;99.90;;;;;;4227169;28;20272;-63
2023/01/08 06:42:43;;;;;;;164.67;23.77;;;1.80;99.90;;;;;;4225314;28;20293;-63
2023/01/08 06:44:45;;;;;;;125.83;20.97;;;1.80;99.90;;;;;;4227237;28;20292;-66
2023/01/08 06:46:47;;;;;;;178.73;20.83;;;1.80;99.90;;;;;;4226689;28;20277;-63
2023/01/08 06:48:48;;;;;;;134.07;22.93;;;1.80;99.90;;;;;;4227620;28;20267;-65
2023/01/08 06:50:49;;;;;;;112.17;18.17;;;1.80;99.90;;;;;;4226701;28;20275;-67
2023/01/08 06:52:54;;;;;;;201.57;21.67;;;1.80;99.90;;;;;;4227678;28;20333;-64
2023/01/08 06:54:55;;;;;;;96.97;18.17;;;1.80;99.90;;;;;;4226550;28;20317;-64
2023/01/08 06:56:56;;;;;;;71.90;17.77;;;1.80;99.90;;;;;;4228885;28;20265;-65
2023/01/08 06:58:57;;;;;;;112.73;20.43;;;1.90;99.90;;;;;;4229068;28;20761;-65
2023/01/08 07:00:59;;;;;;;72.30;20.03;;;2.00;99.90;;;;;;4229707;28;20887;-64
2023/01/08 07:03:00;;;;;;;125.20;19.93;;;2.00;99.90;;;;;;4228747;28;20340;-63
2023/01/08 07:05:01;;;;;;;152.80;21.77;;;2.00;99.90;;;;;;4230120;28;20701;-66
2023/01/08 07:07:02;;;;;;;278.70;27.67;;;1.90;99.90;;;;;;4225828;28;20304;-62
2023/01/08 07:09:03;;;;;;;71.13;17.33;;;1.80;99.90;;;;;;4243166;27;20382;-63
2023/01/08 07:11:04;;;;;;;193.03;23.40;;;1.80;99.90;;;;;;4229597;28;20313;-62
2023/01/08 07:13:08;;;;;;;107.23;20.90;;;1.80;99.90;;;;;;4229555;28;20752;-63
2023/01/08 07:15:10;;;;;;;77.40;18.83;;;1.80;99.90;;;;;;4229844;28;20337;-63
2023/01/08 07:17:11;;;;;;;59.07;17.97;;;1.80;99.90;;;;;;4228664;28;20264;-63
2023/01/08 07:19:12;;;;;;;122.07;19.93;;;1.90;99.90;;;;;;4228516;28;20839;-64
2023/01/08 07:21:13;;;;;;;84.93;29.30;;;1.90;99.90;;;;;;4229213;27;20280;-63
2023/01/08 07:23:14;;;;;;;118.10;22.60;;;1.90;99.90;;;;;;4229957;28;20280;-64
2023/01/08 07:25:15;;;;;;;94.20;20.20;;;1.90;99.90;;;;;;4229291;28;20295;-63
2023/01/08 07:27:16;;;;;;;117.93;23.33;;;1.90;99.90;;;;;;4230250;28;20328;-62
2023/01/08 07:29:18;;;;;;;59.27;18.43;;;1.80;99.90;;;;;;4228986;28;20340;-63
2023/01/08 07:31:19;;;;;;;76.27;17.10;;;1.80;99.90;;;;;;4229849;28;20272;-62
2023/01/08 07:33:20;;;;;;;145.80;21.70;;;1.80;99.90;;;;;;4228788;28;20806;-65
2023/01/08 07:35:21;;;;;;;62.07;20.73;;;1.90;99.90;;;;;;4229715;28;20701;-63
2023/01/08 07:37:22;;;;;;;64.57;19.00;;;2.00;99.90;;;;;;4229119;28;20727;-66
2023/01/08 07:39:23;;;;;;;84.17;21.97;;;2.00;99.90;;;;;;4228601;28;20268;-63
2023/01/08 07:41:25;;;;;;;78.70;21.17;;;2.00;99.90;;;;;;4229014;28;20247;-65
2023/01/08 07:43:28;;;;;;;103.57;20.37;;;2.00;99.90;;;;;;4229064;28;20268;-64
2023/01/08 07:45:31;;;;;;;107.93;21.93;;;2.00;99.90;;;;;;4228442;28;20278;-64
2023/01/08 07:47:32;;;;;;;173.87;24.97;;;2.00;99.90;;;;;;4227012;28;20379;-69
2023/01/08 07:49:33;;;;;;;96.20;22.37;;;2.00;99.90;;;;;;4212372;28;20272;-62
2023/01/08 07:51:34;;;;;;;49.83;19.23;;;2.00;99.90;;;;;;4229311;28;20321;-63
2023/01/08 07:53:36;;;;;;;63.43;20.53;;;2.10;99.90;;;;;;4229454;28;20340;-64
2023/01/08 07:55:37;;;;;;;95.53;20.33;;;2.10;99.90;;;;;;4228775;28;20268;-63
2023/01/08 07:57:38;;;;;;;125.93;21.13;;;2.10;99.90;;;;;;4229597;28;20264;-62
2023/01/08 07:59:39;;;;;;;125.90;22.50;;;2.10;99.90;;;;;;4228344;28;20388;-62
2023/01/08 08:01:41;;;;;;;128.07;20.00;;;2.10;99.90;;;;;;4228430;28;20360;-63
2023/01/08 08:03:42;;;;;;;108.87;17.43;;;2.10;99.90;;;;;;4218061;28;20353;-64
2023/01/08 08:05:43;;;;;;;260.17;22.03;;;2.00;99.90;;;;;;4229733;28;20300;-64
2023/01/08 08:07:44;;;;;;;71.87;16.00;;;2.00;99.90;;;;;;4226647;28;20748;-63
2023/01/08 08:09:45;;;;;;;126.67;19.73;;;1.90;99.90;;;;;;4227907;28;20313;-63
2023/01/08 08:11:46;;;;;;;67.90;17.43;;;1.90;99.90;;;;;;4228606;28;20259;-66
2023/01/08 08:13:49;;;;;;;107.93;18.67;;;2.00;99.90;;;;;;4229322;28;20789;-64
2023/01/08 08:15:50;;;;;;;125.43;18.17;;;2.00;99.90;;;;;;4227726;28;20294;-62
2023/01/08 08:17:51;;;;;;;56.63;21.93;;;2.00;99.90;;;;;;4229228;28;20309;-64
2023/01/08 08:19:52;;;;;;;88.37;19.50;;;2.10;99.90;;;;;;4228348;28;20309;-64
2023/01/08 08:21:53;;;;;;;63.17;19.03;;;2.20;99.90;;;;;;4227745;28;20674;-62
2023/01/08 08:23:55;;;;;;;97.27;18.97;;;2.30;99.90;;;;;;4229063;28;20256;-64
2023/01/08 08:25:56;;;;;;;76.30;18.47;;;2.30;99.90;;;;;;4227482;28;20300;-63
2023/01/08 08:27:58;;;;;;;131.23;19.67;;;2.30;99.90;;;;;;4228841;28;20291;-65
2023/01/08 08:29:59;;;;;;;133.57;22.63;;;2.30;99.90;;;;;;4226414;28;20724;-64
2023/01/08 08:32:00;;;;;;;119.13;19.20;;;2.30;99.90;;;;;;4228259;28;20325;-63
2023/01/08 08:34:01;;;;;;;210.00;21.07;;;2.30;99.90;;;;;;4227585;28;20673;-64
2023/01/08 08:36:03;;;;;;;131.97;20.47;;;2.30;99.90;;;;;;4228558;28;20288;-65
2023/01/08 08:38:04;;;;;;;151.83;19.03;;;2.20;99.90;;;;;;4228098;28;20313;-64
2023/01/08 08:40:06;;;;;;;142.13;20.57;;;2.10;99.90;;;;;;4229455;28;20305;-67
2023/01/08 08:42:07;;;;;;;177.13;22.67;;;2.20;99.90;;;;;;4228023;28;20360;-63
2023/01/08 08:44:08;;;;;;;68.77;17.50;;;2.20;99.90;;;;;;4229045;28;20747;-64
2023/01/08 08:46:09;;;;;;;56.27;17.20;;;2.20;99.90;;;;;;4228153;28;20284;-62
2023/01/08 08:48:11;;;;;;;104.23;19.90;;;2.30;99.90;;;;;;4228924;28;20290;-69
2023/01/08 08:50:12;;;;;;;115.67;20.87;;;2.40;99.90;;;;;;4228246;28;20256;-63
2023/01/08 08:52:13;;;;;;;68.37;18.27;;;2.40;99.90;;;;;;4228535;28;20665;-63
2023/01/08 08:54:14;;;;;;;48.80;17.20;;;2.40;99.90;;;;;;4228827;28;20326;-63
2023/01/08 08:56:15;;;;;;;65.57;19.37;;;2.40;99.90;;;;;;4227970;28;20816;-63
2023/01/08 08:58:17;;;;;;;92.27;19.60;;;2.50;99.90;;;;;;4228823;28;20264;-63
2023/01/08 09:00:18;;;;;;;78.13;19.40;;;2.60;99.90;;;;;;4225169;28;20759;-63
2023/01/08 09:02:19;;;;;;;66.57;21.03;;;2.60;99.90;;;;;;4226578;28;20392;-63
2023/01/08 09:04:20;;;;;;;71.83;23.83;;;2.70;99.90;;;;;;4209330;28;20746;-66
2023/01/08 09:06:23;;;;;;;105.17;25.17;;;2.70;99.90;;;;;;4212141;28;20292;-62
2023/01/08 09:08:25;;;;;;;170.30;23.33;;;2.60;99.90;;;;;;4223141;28;20650;-65
2023/01/08 09:10:26;;;;;;;53.73;19.87;;;2.60;99.90;;;;;;4228772;28;20280;-62
2023/01/08 09:12:27;;;;;;;54.73;20.33;;;2.70;99.90;;;;;;4226371;28;20317;-66
2023/01/08 09:14:28;;;;;;;70.33;21.67;;;2.70;99.90;;;;;;4228580;28;20321;-65
2023/01/08 09:16:31;;;;;;;71.00;20.87;;;2.80;99.90;;;;;;4227769;28;20263;-69
2023/01/08 09:18:32;;;;;;;247.20;23.60;;;2.80;99.90;;;;;;4226815;28;20276;-63
2023/01/08 09:20:33;;;;;;;64.17;19.30;;;2.70;99.90;;;;;;4227232;28;20720;-65
2023/01/08 09:22:35;;;;;;;57.77;19.90;;;2.70;99.90;;;;;;4228155;28;20268;-66
2023/01/08 09:24:36;;;;;;;130.00;22.67;;;2.70;99.90;;;;;;4228070;28;20804;-65
2023/01/08 09:26:37;;;;;;;86.43;20.63;;;2.70;99.90;;;;;;4227060;28;20260;-65
2023/01/08 09:28:38;;;;;;;128.60;21.63;;;2.70;99.90;;;;;;4228506;28;20792;-63
2023/01/08 09:30:39;;;;;;;65.13;18.00;;;2.60;99.90;;;;;;4227072;28;20309;-64
2023/01/08 09:32:40;;;;;;;38.90;18.07;;;2.60;99.90;;;;;;4228006;28;20329;-62
2023/01/08 09:34:42;;;;;;;54.87;18.23;;;2.60;99.90;;;;;;4227072;28;20550;-65
2023/01/08 09:36:43;;;;;;;197.00;23.73;;;2.60;99.90;;;;;;4228453;28;20276;-69
2023/01/08 09:38:44;;;;;;;75.80;18.43;;;2.60;99.90;;;;;;4227352;28;20264;-67
2023/01/08 09:41:02;;;;;;;263.70;25.37;;;2.70;99.90;;;;;;4227908;28;20321;-65
2023/01/08 09:43:10;;;;;;;160.63;21.67;;;2.60;99.90;;;;;;4227192;28;20264;-67
2023/01/08 09:45:26;;;;;;;73.17;17.57;;;2.60;99.90;;;;;;4227976;28;20332;-63
2023/01/08 09:47:33;;;;;;;213.40;23.23;;;2.70;99.90;;;;;;4226933;28;20313;-62
2023/01/08 09:49:46;;;;;;;165.10;19.30;;;2.70;99.90;;;;;;4227249;28;20325;-64
2023/01/08 09:51:47;;;;;;;61.93;16.00;;;2.70;99.90;;;;;;4227228;28;20670;-68
2023/01/08 09:53:54;;;;;;;54.50;18.10;;;2.80;99.90;;;;;;4228361;28;20256;-64
2023/01/08 09:56:01;;;;;;;35.10;16.50;;;2.80;99.90;;;;;;4226764;28;20752;-67
2023/01/08 09:58:02;;;;;;;74.73;17.67;;;2.90;99.90;;;;;;4227789;28;20321;-64
2023/01/08 10:00:05;;;;;;;41.03;17.70;;;3.00;99.90;;;;;;4227032;28;20298;-65
2023/01/08 10:02:14;;;;;;;73.23;18.73;;;3.00;99.90;;;;;;4226464;28;20769;-65
2023/01/08 10:04:17;;;;;;;77.50;18.70;;;3.00;99.90;;;;;;4226852;28;20260;-66
2023/01/08 10:06:18;;;;;;;65.03;16.33;;;3.00;99.90;;;;;;4227613;28;20300;-72
2023/01/08 10:08:19;;;;;;;76.97;17.67;;;2.90;99.90;;;;;;4226748;28;20338;-65
2023/01/08 10:10:29;;;;;;;71.10;16.20;;;2.80;99.90;;;;;;4227435;28;20310;-68
2023/01/08 10:12:32;;;;;;;67.60;18.73;;;2.70;99.90;;;;;;4227220;28;20264;-62
2023/01/08 10:14:38;;;;;;;74.10;15.27;;;2.70;99.90;;;;;;4227096;28;20031;-64
2023/01/08 10:16:42;;;;;;;36.33;14.77;;;2.70;99.90;;;;;;4227736;28;20260;-64
2023/01/08 10:18:43;;;;;;;38.40;16.33;;;2.60;99.90;;;;;;4226649;28;20256;-66
2023/01/08 10:20:44;;;;;;;34.67;16.33;;;2.70;99.90;;;;;;4226155;28;20361;-67
2023/01/08 10:22:46;;;;;;;42.77;16.30;;;2.80;99.90;;;;;;4226718;28;20271;-63
2023/01/08 10:24:48;;;;;;;41.43;17.13;;;2.80;99.90;;;;;;4227270;28;20272;-65
2023/01/08 10:26:49;;;;;;;38.40;17.70;;;2.90;99.90;;;;;;4224914;28;20272;-67
2023/01/08 10:28:50;;;;;;;46.47;19.67;;;2.90;99.90;;;;;;4227642;28;21146;-64